createdAt,value
2019-05-17T00:00:16.806Z,65.36
2019-05-17T00:02:18.905Z,65.74
2019-05-17T00:04:22.116Z,65.57
2019-05-17T00:06:24.426Z,65.92
2019-05-17T00:08:34.428Z,66.39
2019-05-17T00:10:30.589Z,66.32
2019-05-17T00:12:33.374Z,66.63
2019-05-17T00:14:36.558Z,66.36
2019-05-17T00:16:38.817Z,66.75
2019-05-17T00:18:41.215Z,66.78
2019-05-17T00:20:43.305Z,66.55
2019-05-17T00:22:47.109Z,66.67
2019-05-17T00:24:49.946Z,67.57
2019-05-17T00:26:52.185Z,67.26
2019-05-17T00:28:56.231Z,67.48
2019-05-17T00:30:58.802Z,67.55
2019-05-17T00:33:00.726Z,67.49
2019-05-17T00:35:03.518Z,67.70
2019-05-17T00:37:07.097Z,67.64
2019-05-17T00:39:09.360Z,67.72
2019-05-17T00:41:11.744Z,67.21
2019-05-17T00:43:14.038Z,67.83
2019-05-17T00:45:17.608Z,67.49
2019-05-17T00:47:19.844Z,67.10
2019-05-17T00:49:22.612Z,67.07
2019-05-17T00:51:27.241Z,67.11
2019-05-17T00:53:28.816Z,67.20
2019-05-17T00:55:31.231Z,67.35
2019-05-17T00:57:32.904Z,67.84
2019-05-17T00:59:36.767Z,67.18
2019-05-17T01:01:38.940Z,67.43
2019-05-17T01:03:40.985Z,67.54
2019-05-17T01:05:43.588Z,67.64
2019-05-17T01:07:47.139Z,67.64
2019-05-17T01:09:49.417Z,67.63
2019-05-17T01:11:51.433Z,68.34
2019-05-17T01:13:55.914Z,68.28
2019-05-17T01:15:58.128Z,68.41
2019-05-17T01:18:00.143Z,68.31
2019-05-17T01:20:02.415Z,68.55
2019-05-17T01:22:04.557Z,68.95
2019-05-17T01:24:06.959Z,69.25
2019-05-17T01:26:09.290Z,69.95
2019-05-17T01:28:11.396Z,70.10
2019-05-17T01:30:14.052Z,70.61
2019-05-17T01:32:17.189Z,70.69
2019-05-17T01:34:19.702Z,70.95
2019-05-17T01:36:22.003Z,70.63
2019-05-17T01:38:26.777Z,70.27
2019-05-17T01:40:28.283Z,70.37
2019-05-17T01:42:30.601Z,70.61
2019-05-17T01:44:32.870Z,70.72
2019-05-17T01:46:36.935Z,70.63
2019-05-17T01:48:39.068Z,70.60
2019-05-17T01:50:41.534Z,70.56
2019-05-17T01:52:43.305Z,70.74
2019-05-17T01:54:46.953Z,70.35
2019-05-17T01:56:50.491Z,70.58
2019-05-17T01:58:52.711Z,70.36
2019-05-17T02:00:57.140Z,70.07
2019-05-17T02:02:59.036Z,70.07
2019-05-17T02:05:02.610Z,70.58
2019-05-17T02:07:06.864Z,70.69
2019-05-17T02:09:08.910Z,71.10
2019-05-17T02:11:10.952Z,71.45
2019-05-17T02:13:16.293Z,71.58
2019-05-17T02:15:19.183Z,71.29
2019-05-17T02:17:21.320Z,71.17
2019-05-17T02:19:23.331Z,70.86
2019-05-17T02:21:27.441Z,71.04
2019-05-17T02:23:29.485Z,71.13
2019-05-17T02:25:31.855Z,70.84
2019-05-17T02:27:40.445Z,71.12
2019-05-17T02:29:38.521Z,71.10
2019-05-17T02:31:43.465Z,71.52
2019-05-17T02:33:45.629Z,71.24
2019-05-17T02:35:47.806Z,71.57
2019-05-17T02:37:53.203Z,71.61
2019-05-17T02:40:02.926Z,71.15
2019-05-17T02:41:58.210Z,71.26
2019-05-17T02:44:02.346Z,71.54
2019-05-17T02:46:04.450Z,71.49
2019-05-17T02:48:06.561Z,71.47
2019-05-17T02:50:08.689Z,71.67
2019-05-17T02:52:12.429Z,71.56
2019-05-17T02:54:14.773Z,71.07
2019-05-17T02:56:16.803Z,71.20
2019-05-17T02:58:23.062Z,71.08
2019-05-17T03:00:24.017Z,71.10
2019-05-17T03:02:27.927Z,71.29
2019-05-17T03:04:32.707Z,71.44
2019-05-17T03:06:34.484Z,71.68
2019-05-17T03:08:36.653Z,71.30
2019-05-17T03:10:38.728Z,71.90
2019-05-17T03:12:43.920Z,71.55
2019-05-17T03:14:44.709Z,71.66
2019-05-17T03:16:48.188Z,71.65
2019-05-17T03:18:53.048Z,71.38
2019-05-17T03:20:54.139Z,71.28
2019-05-17T03:22:56.922Z,71.68
2019-05-17T03:25:02.883Z,71.98
2019-05-17T03:27:03.186Z,71.58
2019-05-17T03:29:05.572Z,71.41
2019-05-17T03:31:09.388Z,71.63
2019-05-17T03:33:15.929Z,71.37
2019-05-17T03:35:18.752Z,71.55
2019-05-17T03:37:26.384Z,71.73
2019-05-17T03:39:26.029Z,71.92
2019-05-17T03:41:29.456Z,72.23
2019-05-17T03:43:35.219Z,72.73
2019-05-17T03:45:35.945Z,72.93
2019-05-17T03:47:38.264Z,73.06
2019-05-17T03:49:43.545Z,72.90
2019-05-17T03:51:44.272Z,72.86
2019-05-17T03:53:46.841Z,72.90
2019-05-17T03:55:48.977Z,72.92
2019-05-17T03:57:53.262Z,72.42
2019-05-17T03:59:55.051Z,72.32
2019-05-17T04:01:58.164Z,72.33
2019-05-17T04:04:02.901Z,72.58
2019-05-17T04:06:04.347Z,72.94
2019-05-17T04:08:06.428Z,72.94
2019-05-17T04:10:09.123Z,72.90
2019-05-17T04:12:13.634Z,72.75
2019-05-17T04:14:18.283Z,72.71
2019-05-17T04:16:23.617Z,72.61
2019-05-17T04:18:24.557Z,72.11
2019-05-17T04:20:26.531Z,72.06
2019-05-17T04:22:28.670Z,71.75
2019-05-17T04:24:32.446Z,71.51
2019-05-17T04:26:34.682Z,70.17
2019-05-17T04:28:36.674Z,70.75
2019-05-17T04:30:39.177Z,70.91
2019-05-17T04:32:44.262Z,70.58
2019-05-17T04:34:44.922Z,70.43
2019-05-17T04:36:47.359Z,69.55
2019-05-17T04:38:52.423Z,69.31
2019-05-17T04:40:53.805Z,69.12
2019-05-17T04:42:56.324Z,69.08
2019-05-17T04:44:58.330Z,69.20
2019-05-17T04:47:03.049Z,69.38
2019-05-17T04:49:04.708Z,69.36
2019-05-17T04:51:06.588Z,69.27
2019-05-17T04:53:08.667Z,69.59
2019-05-17T04:55:13.277Z,69.64
2019-05-17T04:57:15.204Z,69.98
2019-05-17T04:59:17.470Z,70.37
2019-05-17T05:01:23.359Z,70.73
2019-05-17T05:03:23.954Z,70.96
2019-05-17T05:05:26.079Z,71.36
2019-05-17T05:07:28.677Z,71.67
2019-05-17T05:09:32.266Z,71.93
2019-05-17T05:11:34.574Z,71.54
2019-05-17T05:13:37.237Z,71.66
2019-05-17T05:15:43.321Z,71.15
2019-05-17T05:17:44.403Z,70.92
2019-05-17T05:19:46.684Z,71.10
2019-05-17T05:21:48.701Z,70.86
2019-05-17T05:23:51.815Z,69.97
2019-05-17T05:25:54.074Z,69.44
2019-05-17T05:27:56.328Z,69.16
2019-05-17T05:29:58.345Z,69.12
2019-05-17T05:32:02.639Z,68.90
2019-05-17T05:34:04.930Z,69.14
2019-05-17T05:36:07.012Z,69.13
2019-05-17T05:38:09.445Z,69.67
2019-05-17T05:42:08.018Z,70.16
2019-05-17T05:44:06.513Z,70.12
2019-05-17T05:46:08.630Z,70.47
2019-05-17T05:48:12.916Z,70.33
2019-05-17T05:50:17.700Z,69.69
2019-05-17T05:52:21.852Z,69.29
2019-05-17T05:54:24.060Z,68.94
2019-05-17T05:56:26.665Z,68.21
2019-05-17T05:58:28.501Z,68.20
2019-05-17T06:00:32.917Z,68.67
2019-05-17T06:02:34.908Z,68.55
2019-05-17T06:04:36.894Z,68.59
2019-05-17T06:06:41.492Z,68.41
2019-05-17T06:08:43.441Z,68.10
2019-05-17T06:10:45.486Z,67.52
2019-05-17T06:12:47.590Z,67.36
2019-05-17T06:14:52.225Z,67.68
2019-05-17T06:16:53.904Z,67.19
2019-05-17T06:18:56.394Z,66.79
2019-05-17T06:20:58.343Z,67.26
2019-05-17T06:23:02.620Z,67.24
2019-05-17T06:25:05.013Z,67.43
2019-05-17T06:27:07.642Z,67.20
2019-05-17T06:29:11.942Z,67.10
2019-05-17T06:31:15.526Z,66.71
2019-05-17T06:33:28.113Z,66.88
2019-05-17T06:35:21.866Z,66.99
2019-05-17T06:37:24.108Z,67.00
2019-05-17T06:39:26.655Z,67.34
2019-05-17T06:41:28.203Z,68.27
2019-05-17T06:43:32.260Z,68.20
2019-05-17T06:45:34.366Z,68.27
2019-05-17T06:47:37.795Z,68.18
2019-05-17T06:49:42.403Z,68.08
2019-05-17T06:51:44.765Z,68.23
2019-05-17T06:53:46.767Z,68.15
2019-05-17T06:55:48.777Z,68.68
2019-05-17T06:57:52.777Z,69.29
2019-05-17T06:59:54.812Z,70.09
2019-05-17T07:01:56.816Z,69.58
2019-05-17T07:04:00.300Z,69.31
2019-05-17T07:06:04.306Z,69.65
2019-05-17T07:08:06.367Z,69.32
2019-05-17T07:10:11.309Z,69.23
2019-05-17T07:12:13.729Z,68.89
2019-05-17T07:14:15.697Z,68.65
2019-05-17T07:16:19.724Z,68.99
2019-05-17T07:18:22.165Z,68.32
2019-05-17T07:20:24.150Z,67.92
2019-05-17T07:22:26.442Z,67.58
2019-05-17T07:24:30.077Z,67.54
2019-05-17T07:26:32.164Z,67.00
2019-05-17T07:28:34.482Z,66.45
2019-05-17T07:30:36.634Z,66.10
2019-05-17T07:32:40.553Z,66.74
2019-05-17T07:34:43.547Z,66.08
2019-05-17T07:36:45.518Z,65.40
2019-05-17T07:38:50.341Z,64.62
2019-05-17T07:40:52.171Z,63.74
2019-05-17T07:43:06.888Z,63.15
2019-05-17T07:45:00.327Z,63.33
2019-05-17T07:47:02.041Z,62.77
2019-05-17T07:49:04.166Z,62.67
2019-05-17T07:51:06.146Z,62.21
2019-05-17T07:53:10.213Z,61.78
2019-05-17T07:55:12.575Z,61.60
2019-05-17T07:57:14.593Z,61.67
2019-05-17T07:59:16.868Z,61.54
2019-05-17T08:01:20.482Z,61.28
2019-05-17T08:03:24.846Z,61.59
2019-05-17T08:05:29.475Z,62.03
2019-05-17T08:07:31.409Z,61.87
2019-05-17T08:09:33.437Z,61.88
2019-05-17T08:11:35.588Z,62.25
2019-05-17T08:13:39.697Z,62.56
2019-05-17T08:15:41.680Z,62.63
2019-05-17T08:17:44.134Z,62.35
2019-05-17T08:19:45.857Z,61.91
2019-05-17T08:21:50.101Z,62.35
2019-05-17T08:23:52.371Z,62.21
2019-05-17T08:25:56.322Z,62.33
2019-05-17T08:27:59.504Z,61.94
2019-05-17T08:30:02.222Z,61.23
2019-05-17T08:32:04.418Z,60.86
2019-05-17T08:34:06.445Z,60.70
2019-05-17T08:36:09.333Z,59.77
2019-05-17T08:38:11.445Z,59.44
2019-05-17T08:40:15.302Z,59.25
2019-05-17T08:42:20.460Z,60.66
2019-05-17T08:44:22.629Z,61.28
2019-05-17T08:46:24.717Z,61.48
2019-05-17T08:48:26.707Z,61.57
2019-05-17T08:50:29.408Z,62.15
2019-05-17T08:52:31.653Z,62.28
2019-05-17T08:54:33.796Z,62.78
2019-05-17T08:56:35.805Z,62.52
2019-05-17T08:58:40.161Z,63.55
2019-05-17T09:00:41.899Z,62.72
2019-05-17T09:02:43.767Z,61.85
2019-05-17T09:04:45.837Z,61.44
2019-05-17T09:06:50.481Z,61.75
2019-05-17T09:08:53.743Z,61.17
2019-05-17T09:10:55.935Z,61.64
2019-05-17T09:12:59.701Z,61.21
2019-05-17T09:15:02.340Z,60.98
2019-05-17T09:17:03.914Z,60.97
2019-05-17T09:19:06.165Z,60.87
2019-05-17T09:21:09.734Z,61.16
2019-05-17T09:23:11.989Z,59.91
2019-05-17T09:25:18.936Z,59.40
2019-05-17T09:27:19.739Z,58.37
2019-05-17T09:29:21.992Z,57.86
2019-05-17T09:31:24.037Z,55.95
2019-05-17T09:33:26.060Z,55.73
2019-05-17T09:35:30.035Z,56.07
2019-05-17T09:37:32.354Z,56.75
2019-05-17T09:39:34.346Z,57.16
2019-05-17T09:41:36.359Z,56.79
2019-05-17T09:43:40.271Z,57.18
2019-05-17T09:45:42.504Z,57.51
2019-05-17T09:47:44.532Z,57.80
2019-05-17T09:49:46.835Z,58.00
2019-05-17T09:51:49.664Z,58.01
2019-05-17T09:53:51.839Z,58.22
2019-05-17T09:55:53.894Z,58.09
2019-05-17T09:57:56.107Z,58.00
2019-05-17T10:00:00.227Z,58.81
2019-05-17T10:02:02.653Z,58.34
2019-05-17T10:04:05.018Z,57.65
2019-05-17T10:06:09.497Z,56.54
2019-05-17T10:08:11.303Z,55.83
2019-05-17T10:10:13.493Z,55.93
2019-05-17T10:12:15.629Z,55.91
2019-05-17T10:14:28.081Z,55.04
2019-05-17T10:16:22.394Z,55.16
2019-05-17T10:18:24.439Z,54.52
2019-05-17T10:20:26.469Z,55.43
2019-05-17T10:22:30.411Z,55.12
2019-05-17T10:24:38.140Z,54.20
2019-05-17T10:26:36.392Z,54.27
2019-05-17T10:28:39.977Z,54.68
2019-05-17T10:30:42.167Z,55.12
2019-05-17T10:32:44.387Z,55.49
2019-05-17T10:34:46.394Z,55.29
2019-05-17T10:36:50.598Z,55.11
2019-05-17T10:38:53.460Z,55.40
2019-05-17T10:40:55.475Z,54.52
2019-05-17T10:42:57.540Z,55.17
2019-05-17T10:45:00.009Z,55.05
2019-05-17T10:47:02.369Z,54.86
2019-05-17T10:49:04.507Z,55.69
2019-05-17T10:51:06.835Z,56.04
2019-05-17T10:53:10.072Z,56.22
2019-05-17T10:55:12.574Z,56.31
2019-05-17T10:57:14.627Z,56.49
2019-05-17T10:59:16.613Z,56.97
2019-05-17T11:01:20.045Z,57.20
2019-05-17T11:03:22.267Z,56.83
2019-05-17T11:05:24.330Z,55.91
2019-05-17T11:07:26.330Z,56.75
2019-05-17T11:09:31.519Z,57.24
2019-05-17T11:11:33.855Z,56.63
2019-05-17T11:13:35.878Z,56.37
2019-05-17T11:15:37.939Z,56.08
2019-05-17T11:17:40.067Z,55.79
2019-05-17T11:19:42.056Z,56.01
2019-05-17T11:21:44.139Z,56.31
2019-05-17T11:23:46.161Z,56.19
2019-05-17T11:25:48.187Z,56.56
2019-05-17T11:27:50.256Z,56.52
2019-05-17T11:29:52.447Z,55.56
2019-05-17T11:31:54.478Z,55.35
2019-05-17T11:33:59.230Z,56.10
2019-05-17T11:36:01.272Z,55.86
2019-05-17T11:38:04.379Z,56.66
2019-05-17T11:40:08.400Z,56.89
2019-05-17T11:42:10.550Z,56.32
2019-05-17T11:44:12.640Z,55.32
2019-05-17T11:46:14.644Z,54.79
2019-05-17T11:48:16.875Z,55.04
2019-05-17T11:50:19.378Z,55.04
2019-05-17T11:52:21.410Z,54.05
2019-05-17T11:54:23.633Z,53.74
2019-05-17T11:56:25.763Z,53.50
2019-05-17T11:58:27.918Z,52.27
2019-05-17T12:00:30.102Z,51.99
2019-05-17T12:02:32.172Z,52.97
2019-05-17T12:04:34.632Z,52.84
2019-05-17T12:06:36.640Z,52.95
2019-05-17T12:08:38.865Z,52.33
2019-05-17T12:10:40.976Z,52.15
2019-05-17T12:12:43.301Z,51.74
2019-05-17T12:14:45.293Z,50.72
2019-05-17T12:16:47.664Z,50.18
2019-05-17T12:18:49.693Z,50.22
2019-05-17T12:20:51.705Z,50.20
2019-05-17T12:22:53.768Z,49.85
2019-05-17T12:24:55.816Z,49.96
2019-05-17T12:26:58.174Z,50.88
2019-05-17T12:29:00.267Z,50.69
2019-05-17T12:31:02.477Z,50.19
2019-05-17T12:33:04.741Z,51.30
2019-05-17T12:35:07.111Z,51.47
2019-05-17T12:37:10.425Z,51.08
2019-05-17T12:39:13.100Z,51.72
2019-05-17T12:41:15.193Z,51.76
2019-05-17T12:43:17.226Z,51.91
2019-05-17T12:45:20.740Z,52.87
2019-05-17T12:47:23.067Z,52.89
2019-05-17T12:49:25.367Z,52.84
2019-05-17T12:51:27.428Z,53.35
2019-05-17T12:53:29.634Z,53.80
2019-05-17T12:55:31.660Z,54.00
2019-05-17T12:57:33.689Z,54.36
2019-05-17T12:59:35.755Z,54.24
2019-05-17T13:01:37.753Z,55.29
2019-05-17T13:03:39.857Z,55.69
2019-05-17T13:05:42.902Z,55.93
2019-05-17T13:07:45.118Z,56.35
2019-05-17T13:09:47.510Z,56.56
2019-05-17T13:11:49.561Z,56.40
2019-05-17T13:13:51.788Z,56.54
2019-05-17T13:15:53.926Z,56.14
2019-05-17T13:17:55.986Z,56.06
2019-05-17T13:19:58.014Z,55.93
2019-05-17T13:22:00.043Z,56.37
2019-05-17T13:24:02.682Z,56.43
2019-05-17T13:26:05.007Z,56.28
2019-05-17T13:28:07.070Z,56.22
2019-05-17T13:30:09.458Z,56.20
2019-05-17T13:32:11.481Z,55.73
2019-05-17T13:34:13.742Z,56.34
2019-05-17T13:36:15.773Z,56.17
2019-05-17T13:38:18.227Z,56.31
2019-05-17T13:40:21.357Z,56.00
2019-05-17T13:42:23.534Z,55.64
2019-05-17T13:44:25.687Z,55.84
2019-05-17T13:46:33.218Z,55.46
2019-05-17T13:48:32.090Z,55.64
2019-05-17T13:50:34.214Z,54.63
2019-05-17T13:52:36.710Z,54.25
2019-05-17T13:54:38.303Z,54.34
2019-05-17T13:56:40.596Z,53.98
2019-05-17T13:58:42.682Z,54.21
2019-05-17T14:00:44.842Z,54.25
2019-05-17T14:02:46.825Z,54.31
2019-05-17T14:04:49.232Z,53.39
2019-05-17T14:06:51.676Z,52.36
2019-05-17T14:08:53.547Z,52.78
2019-05-17T14:10:55.580Z,52.31
2019-05-17T14:12:57.702Z,52.31
2019-05-17T14:15:00.433Z,51.53
2019-05-17T14:17:02.456Z,52.53
2019-05-17T14:21:19.693Z,51.50
2019-05-17T14:23:21.837Z,50.93
2019-05-17T14:25:23.959Z,51.35
2019-05-17T14:27:26.247Z,51.50
2019-05-17T14:29:28.281Z,52.40
2019-05-17T14:31:30.299Z,53.16
2019-05-17T14:33:32.338Z,51.91
2019-05-17T14:35:34.374Z,51.15
2019-05-17T14:37:36.393Z,51.16
2019-05-17T14:39:39.530Z,51.64
2019-05-17T14:41:41.516Z,50.82
2019-05-17T14:43:43.481Z,50.84
2019-05-17T14:45:45.505Z,51.18
2019-05-17T14:47:47.795Z,51.61
2019-05-17T14:49:51.238Z,51.16
2019-05-17T14:51:53.433Z,50.95
2019-05-17T14:53:55.578Z,51.59
2019-05-17T14:55:57.710Z,52.33
2019-05-17T14:57:59.710Z,52.63
2019-05-17T15:00:01.733Z,51.74
2019-05-17T15:02:04.910Z,52.15
2019-05-17T15:04:07.955Z,52.68
2019-05-17T15:06:09.671Z,52.88
2019-05-17T15:08:11.613Z,52.70
2019-05-17T15:10:14.166Z,53.05
2019-05-17T15:12:27.788Z,53.06
2019-05-17T15:14:20.238Z,54.47
2019-05-17T15:16:22.301Z,54.02
2019-05-17T15:18:24.314Z,54.19
2019-05-17T15:20:26.354Z,54.18
2019-05-17T15:22:28.496Z,54.31
2019-05-17T15:24:31.005Z,54.44
2019-05-17T15:26:35.604Z,54.52
2019-05-17T15:28:36.653Z,54.78
2019-05-17T15:30:38.641Z,54.54
2019-05-17T15:32:41.777Z,54.57
2019-05-17T15:34:43.816Z,55.18
2019-05-17T15:36:45.826Z,55.38
2019-05-17T15:38:47.839Z,54.94
2019-05-17T15:40:50.047Z,54.87
2019-05-17T15:42:52.077Z,54.93
2019-05-17T15:44:54.056Z,55.01
2019-05-17T15:46:56.162Z,54.86
2019-05-17T15:48:58.152Z,55.53
2019-05-17T15:51:00.143Z,55.10
2019-05-17T15:53:03.299Z,55.26
2019-05-17T15:55:05.857Z,55.64
2019-05-17T15:57:08.072Z,55.98
2019-05-17T15:59:10.137Z,55.92
2019-05-17T16:01:12.142Z,56.10
2019-05-17T16:03:14.329Z,56.13
2019-05-17T16:05:16.391Z,56.29
2019-05-17T16:07:18.422Z,55.99
2019-05-17T16:09:20.444Z,55.83
2019-05-17T16:11:22.468Z,55.45
2019-05-17T16:13:24.499Z,55.62
2019-05-17T16:15:26.497Z,55.84
2019-05-17T16:17:28.557Z,55.94
2019-05-17T16:19:30.565Z,55.79
2019-05-17T16:21:32.567Z,55.15
2019-05-17T16:23:34.557Z,55.36
2019-05-17T16:25:36.775Z,55.29
2019-05-17T16:27:38.805Z,55.67
2019-05-17T16:29:40.827Z,55.43
2019-05-17T16:31:42.987Z,55.73
2019-05-17T16:33:45.028Z,55.98
2019-05-17T16:35:47.057Z,55.66
2019-05-17T16:37:51.168Z,55.44
2019-05-17T16:39:53.174Z,55.46
2019-05-17T16:41:55.221Z,55.19
2019-05-17T16:43:57.263Z,55.08
2019-05-17T16:45:59.258Z,55.22
2019-05-17T16:48:01.333Z,55.15
2019-05-17T16:50:04.100Z,54.98
2019-05-17T16:52:06.112Z,55.23
2019-05-17T16:54:08.224Z,55.43
2019-05-17T16:56:10.259Z,55.67
2019-05-17T16:58:12.252Z,55.70
2019-05-17T17:00:27.036Z,55.45
2019-05-17T17:02:29.145Z,55.38
2019-05-17T17:04:31.182Z,55.90
2019-05-17T17:06:33.293Z,55.49
2019-05-17T17:08:36.028Z,55.37
2019-05-17T17:10:39.257Z,55.46
2019-05-17T17:12:41.263Z,55.09
2019-05-17T17:14:43.551Z,54.94
2019-05-17T17:16:45.813Z,54.92
2019-05-17T17:18:47.878Z,54.94
2019-05-17T17:20:50.188Z,55.16
2019-05-17T17:22:52.568Z,55.67
2019-05-17T17:24:54.578Z,55.66
2019-05-17T17:26:56.602Z,55.95
2019-05-17T17:28:58.620Z,56.18
2019-05-17T17:31:00.921Z,56.64
2019-05-17T17:33:03.041Z,56.44
2019-05-17T17:35:06.005Z,56.56
2019-05-17T17:37:08.180Z,56.83
2019-05-17T17:39:10.355Z,56.95
2019-05-17T17:41:12.608Z,57.04
2019-05-17T17:43:15.734Z,57.13
2019-05-17T17:45:19.705Z,56.97
2019-05-17T17:47:21.958Z,57.38
2019-05-17T17:49:24.105Z,57.89
2019-05-17T17:51:26.219Z,57.86
2019-05-17T17:53:28.285Z,57.90
2019-05-17T17:55:30.301Z,57.53
2019-05-17T17:57:32.365Z,57.45
2019-05-17T17:59:34.394Z,57.46
2019-05-17T18:01:36.711Z,57.61
2019-05-17T18:03:38.635Z,57.86
2019-05-17T18:05:40.734Z,57.96
2019-05-17T18:07:42.926Z,58.09
2019-05-17T18:09:46.208Z,58.67
2019-05-17T18:11:48.364Z,58.81
2019-05-17T18:13:50.634Z,58.98
2019-05-17T18:15:52.706Z,58.99
2019-05-17T18:17:54.850Z,59.07
2019-05-17T18:19:56.881Z,59.16
2019-05-17T18:22:00.197Z,58.94
2019-05-17T18:24:02.194Z,59.02
2019-05-17T18:26:04.361Z,59.02
2019-05-17T18:28:06.866Z,58.95
2019-05-17T18:30:09.234Z,58.84
2019-05-17T18:32:11.248Z,58.73
2019-05-17T18:34:13.637Z,58.78
2019-05-17T18:36:16.025Z,58.92
2019-05-17T18:38:21.720Z,58.75
2019-05-17T18:40:24.287Z,58.71
2019-05-17T18:42:26.628Z,58.93
2019-05-17T18:44:28.645Z,59.60
2019-05-17T18:46:30.692Z,59.30
2019-05-17T18:48:32.932Z,59.34
2019-05-17T18:50:35.058Z,59.39
2019-05-17T18:52:37.049Z,59.00
2019-05-17T18:54:39.226Z,59.12
2019-05-17T18:56:44.012Z,59.34
2019-05-17T18:58:46.122Z,59.58
2019-05-17T19:00:48.317Z,59.53
2019-05-17T19:02:51.597Z,59.51
2019-05-17T19:04:53.661Z,59.26
2019-05-17T19:06:55.810Z,58.88
2019-05-17T19:08:57.830Z,59.08
2019-05-17T19:10:59.869Z,59.21
2019-05-17T19:13:01.990Z,59.08
2019-05-17T19:15:05.159Z,59.22
2019-05-17T19:17:07.296Z,59.30
2019-05-17T19:19:09.395Z,59.73
2019-05-17T19:21:11.436Z,59.61
2019-05-17T19:23:13.483Z,59.57
2019-05-17T20:05:55.060Z,61.26
2019-05-17T20:38:34.823Z,62.27
2019-05-17T21:31:03.516Z,63.55
2019-05-17T21:33:05.577Z,63.72
2019-05-17T21:36:16.937Z,64.20
2019-05-17T21:38:19.119Z,64.06
2019-05-17T21:40:21.770Z,64.05
2019-05-17T21:42:25.079Z,64.31
2019-05-17T21:44:27.094Z,64.29
2019-05-17T21:46:29.320Z,64.45
2019-05-17T21:50:13.166Z,64.96
2019-05-17T21:52:15.256Z,64.89
2019-05-17T21:54:17.352Z,64.98
2019-05-17T21:56:19.735Z,65.36
2019-05-17T21:58:21.909Z,65.25
2019-05-17T22:01:19.653Z,65.03
2019-05-17T22:03:21.797Z,65.32
2019-05-17T22:05:24.203Z,65.41
2019-05-17T22:07:26.379Z,65.59
2019-05-17T22:09:28.473Z,65.35
2019-05-17T22:11:32.551Z,65.84
2019-05-17T22:13:34.770Z,66.33
2019-05-17T22:15:36.797Z,66.08
2019-05-17T22:17:39.268Z,66.60
2019-05-17T22:19:41.138Z,66.61
2019-05-17T22:21:43.321Z,66.92
2019-05-17T22:23:45.369Z,67.32
2019-05-17T22:25:47.433Z,67.29
2019-05-17T22:27:49.445Z,67.48
2019-05-17T22:29:51.436Z,67.10
2019-05-17T22:31:54.582Z,67.45
2019-05-17T22:33:56.697Z,67.51
2019-05-17T22:35:58.794Z,67.72
2019-05-17T22:38:00.937Z,68.02
2019-05-17T22:40:03.763Z,68.27
2019-05-17T22:42:05.903Z,68.20
2019-05-17T22:44:07.937Z,68.28
2019-05-17T22:46:10.110Z,68.70
2019-05-17T22:48:12.132Z,69.51
2019-05-17T22:50:14.363Z,69.73
2019-05-17T22:52:16.480Z,70.22
2019-05-17T22:54:18.530Z,70.31
2019-05-17T22:56:20.613Z,70.57
2019-05-17T22:58:22.642Z,70.67
2019-05-17T23:00:24.868Z,71.12
2019-05-17T23:02:26.922Z,71.11
2019-05-17T23:04:29.097Z,71.36
2019-05-17T23:06:31.121Z,71.62
2019-05-17T23:08:33.127Z,71.49
2019-05-17T23:10:35.531Z,71.52
2019-05-17T23:12:37.556Z,72.10
2019-05-17T23:14:39.607Z,72.25
2019-05-17T23:16:51.243Z,72.18
2019-05-17T23:19:05.256Z,72.58
2019-05-17T23:21:07.325Z,72.60
2019-05-17T23:23:09.336Z,72.46
2019-05-17T23:25:11.329Z,72.50
2019-05-17T23:27:13.364Z,72.71
2019-05-17T23:29:15.441Z,72.91
2019-05-17T23:31:17.424Z,73.14
2019-05-17T23:33:19.526Z,72.89
2019-05-17T23:35:21.862Z,73.16
2019-05-17T23:37:23.899Z,73.32
2019-05-17T23:39:25.935Z,73.14
2019-05-17T23:41:27.916Z,73.29
2019-05-17T23:43:29.906Z,73.58
2019-05-17T23:45:31.922Z,73.49
2019-05-17T23:47:34.217Z,74.32
2019-05-17T23:49:36.268Z,74.00
2019-05-17T23:51:38.551Z,74.02
2019-05-17T23:53:40.572Z,74.25
2019-05-17T23:55:42.720Z,74.25
2019-05-17T23:57:44.754Z,74.51
2019-05-17T23:59:46.943Z,74.46
